Kosibaai Airport


Codes: FAKB/
Name: Kosibaai Airport
City: Kosi Bay
Country: South Africa
Elevation: 140 ft.

Photos at Kosibaai Airport


   Photos courtesy of SpottingLog. You can add your own sightings and photos by signing up for a free trial today.



No photos found.

Weather at Kosibaai Airport


Time (UTC)DescriptionTempratureWindCloud coverageVisibilityPressureHumidity
13-Jun-2024 03:00Clear Sky15°C4 mph, 0%10000m1024hPa90%
13-Jun-2024 06:00Clear Sky16°C4 mph, SW1%10000m1026hPa78%
13-Jun-2024 09:00Clear Sky24°C2 mph, S0%10000m1026hPa49%
13-Jun-2024 12:00Clear Sky24°C7 mph, SE0%10000m1024hPa49%
13-Jun-2024 15:00Clear Sky20°C4 mph, SE0%10000m1024hPa74%
13-Jun-2024 18:00Clear Sky18°C4 mph, SW0%10000m1026hPa82%
13-Jun-2024 21:00Clear Sky16°C4 mph, SW1%10000m1026hPa95%
14-Jun-2024 00:00Clear Sky15°C4 mph, SW3%10000m1025hPa96%
14-Jun-2024 03:00Few Clouds15°C4 mph, SW13%10000m1026hPa96%
14-Jun-2024 06:00Few Clouds18°C4 mph, SW11%10000m1027hPa85%
14-Jun-2024 09:00Light Rain23°C4 mph, E8%10000m1026hPa61%
14-Jun-2024 12:00Light Rain23°C7 mph, E38%10000m1023hPa60%
14-Jun-2024 15:00Broken Clouds19°C7 mph, NE53%10000m1023hPa73%
14-Jun-2024 18:00Scattered Clouds17°C4 mph, NE26%10000m1024hPa81%
14-Jun-2024 21:00Clear Sky16°C4 mph, NW0%10000m1024hPa88%
15-Jun-2024 00:00Clear Sky15°C4 mph, NW1%10000m1023hPa93%
15-Jun-2024 03:00Clear Sky15°C4 mph, NW1%10000m1023hPa94%
15-Jun-2024 06:00Clear Sky17°C4 mph, NW2%10000m1024hPa84%
15-Jun-2024 09:00Clear Sky23°C4 mph, N0%10000m1023hPa53%
15-Jun-2024 12:00Clear Sky25°C7 mph, NE0%10000m1021hPa49%
15-Jun-2024 15:00Clear Sky20°C7 mph, NE0%10000m1021hPa76%
15-Jun-2024 18:00Clear Sky17°C4 mph, NE0%10000m1023hPa87%
15-Jun-2024 21:00Clear Sky16°C4 mph, NW0%10000m1024hPa91%
16-Jun-2024 00:00Clear Sky15°C4 mph, W1%10000m1023hPa94%
16-Jun-2024 03:00Clear Sky14°C4 mph, NW1%10000m1023hPa93%
16-Jun-2024 06:00Clear Sky17°C4 mph, NW1%10000m1024hPa83%
16-Jun-2024 09:00Clear Sky23°C4 mph, N0%10000m1023hPa54%
16-Jun-2024 12:00Clear Sky24°C7 mph, NE1%10000m1020hPa51%
16-Jun-2024 15:00Broken Clouds20°C7 mph, NE71%10000m1020hPa70%
16-Jun-2024 18:00Broken Clouds18°C7 mph, NE82%10000m1022hPa77%
16-Jun-2024 21:00Broken Clouds16°C4 mph, N80%10000m1023hPa87%
17-Jun-2024 00:00Broken Clouds15°C4 mph, NW67%10000m1022hPa94%
17-Jun-2024 03:00Scattered Clouds15°C4 mph, NW30%10000m1022hPa96%
17-Jun-2024 06:00Few Clouds17°C4 mph, NW22%10000m1023hPa85%
17-Jun-2024 09:00Clear Sky23°C9 mph, N7%10000m1022hPa58%
17-Jun-2024 12:00Clear Sky25°C11 mph, NE8%10000m1018hPa51%
17-Jun-2024 15:00Clear Sky20°C9 mph, NE8%10000m1018hPa71%
17-Jun-2024 18:00Few Clouds18°C7 mph, NE18%10000m1019hPa80%
17-Jun-2024 21:00Scattered Clouds18°C9 mph, N36%10000m1019hPa85%
18-Jun-2024 00:00Scattered Clouds17°C7 mph, NW39%10000m1018hPa93%